createdAt,value
2023-02-07T00:01:33.976Z,92.50
2023-02-07T00:04:01.887Z,92.91
2023-02-07T00:06:32.445Z,93.64
2023-02-07T00:09:03.208Z,93.18
2023-02-07T00:11:30.737Z,92.43
2023-02-07T00:13:58.965Z,92.72
2023-02-07T00:16:28.005Z,92.75
2023-02-07T00:18:56.068Z,92.84
2023-02-07T00:21:26.018Z,92.93
2023-02-07T00:23:54.010Z,93.35
2023-02-07T00:26:23.153Z,93.86
2023-02-07T00:28:52.351Z,93.57
2023-02-07T00:31:25.226Z,93.44
2023-02-07T00:33:55.367Z,93.97
2023-02-07T00:36:24.270Z,94.14
2023-02-07T00:38:51.690Z,94.27
2023-02-07T00:41:20.028Z,94.44
2023-02-07T00:43:48.148Z,94.58
2023-02-07T00:46:16.415Z,94.43
2023-02-07T00:48:44.177Z,94.66
2023-02-07T00:51:13.748Z,94.91
2023-02-07T00:53:41.120Z,94.87
2023-02-07T00:56:09.124Z,94.74
2023-02-07T00:58:36.484Z,95.15
2023-02-07T01:01:05.006Z,94.31
2023-02-07T01:03:33.356Z,94.47
2023-02-07T01:06:00.844Z,94.30
2023-02-07T01:08:27.901Z,94.19
2023-02-07T01:10:55.600Z,94.59
2023-02-07T01:13:22.506Z,94.71
2023-02-07T01:15:50.296Z,94.90
2023-02-07T01:18:17.617Z,95.57
2023-02-07T01:20:45.030Z,95.48
2023-02-07T01:23:13.104Z,95.16
2023-02-07T01:25:41.573Z,95.69
2023-02-07T01:28:08.649Z,95.01
2023-02-07T01:30:36.084Z,95.16
2023-02-07T01:33:03.119Z,95.07
2023-02-07T01:35:30.542Z,95.04
2023-02-07T01:38:02.649Z,95.04
2023-02-07T01:40:31.053Z,94.81
2023-02-07T01:42:59.265Z,95.46
2023-02-07T01:45:33.017Z,95.09
2023-02-07T01:48:03.547Z,94.74
2023-02-07T01:50:31.837Z,95.05
2023-02-07T01:53:02.466Z,95.01
2023-02-07T01:55:34.002Z,95.15
2023-02-07T01:58:04.395Z,95.48
2023-02-07T02:00:31.813Z,95.47
2023-02-07T02:02:59.466Z,95.74
2023-02-07T02:05:30.573Z,95.91
2023-02-07T02:07:57.716Z,96.10
2023-02-07T02:10:47.359Z,95.91
2023-02-07T02:13:53.104Z,96.18
2023-02-07T02:16:42.701Z,96.25
2023-02-07T02:19:23.667Z,96.21
2023-02-07T02:22:48.426Z,96.55
2023-02-07T02:25:53.968Z,96.32
2023-02-07T02:28:39.892Z,96.13
2023-02-07T02:31:39.083Z,96.39
2023-02-07T02:34:27.774Z,96.44
2023-02-07T02:37:00.786Z,96.20
2023-02-07T02:39:45.343Z,96.29
2023-02-07T02:42:22.678Z,95.81
2023-02-07T02:45:01.197Z,96.21
2023-02-07T02:47:30.878Z,96.43
2023-02-07T02:49:59.389Z,96.42
2023-02-07T02:52:44.549Z,96.32
2023-02-07T02:55:22.366Z,96.56
2023-02-07T02:58:09.575Z,96.34
2023-02-07T03:00:58.367Z,96.92
2023-02-07T03:03:54.996Z,96.89
2023-02-07T03:06:42.173Z,96.83
2023-02-07T03:09:40.124Z,96.36
2023-02-07T03:12:20.394Z,96.73
2023-02-07T03:14:57.458Z,96.77
2023-02-07T03:17:33.294Z,96.34
2023-02-07T03:20:19.640Z,96.83
2023-02-07T03:22:48.701Z,96.84
2023-02-07T03:25:17.656Z,97.05
2023-02-07T03:27:47.684Z,97.35
2023-02-07T03:30:18.734Z,97.38
2023-02-07T03:32:51.760Z,97.64
2023-02-07T03:35:32.085Z,97.83
2023-02-07T03:38:02.330Z,97.82
2023-02-07T03:40:35.950Z,97.35
2023-02-07T03:43:08.412Z,97.84
2023-02-07T03:45:36.152Z,97.73
2023-02-07T03:48:03.637Z,97.62
2023-02-07T03:50:30.656Z,97.76
2023-02-07T03:52:57.840Z,97.83
2023-02-07T03:55:24.826Z,98.07
2023-02-07T03:57:51.984Z,98.47
2023-02-07T04:00:19.342Z,98.52
2023-02-07T04:02:46.535Z,98.01
2023-02-07T04:05:13.799Z,98.30
2023-02-07T04:07:41.070Z,97.97
2023-02-07T04:10:10.129Z,98.31
2023-02-07T04:12:37.923Z,98.50
2023-02-07T04:15:06.048Z,98.12
2023-02-07T04:17:33.917Z,98.15
2023-02-07T04:20:01.817Z,98.26
2023-02-07T04:22:29.794Z,97.71
2023-02-07T04:24:57.277Z,98.17
2023-02-07T04:27:24.501Z,97.98
2023-02-07T04:29:51.528Z,98.16
2023-02-07T04:32:19.153Z,98.34
2023-02-07T04:34:46.129Z,98.46
2023-02-07T04:37:13.390Z,97.76
2023-02-07T04:39:40.293Z,98.10
2023-02-07T04:42:07.747Z,97.78
2023-02-07T04:44:34.779Z,97.68
2023-02-07T04:47:01.987Z,97.57
2023-02-07T04:49:31.860Z,97.50
2023-02-07T04:52:01.000Z,97.95
2023-02-07T04:54:27.902Z,97.88
2023-02-07T04:56:55.079Z,98.16
2023-02-07T04:59:22.022Z,97.76
2023-02-07T05:01:49.267Z,97.75
2023-02-07T05:04:16.159Z,97.44
2023-02-07T05:06:43.390Z,97.63
2023-02-07T05:09:10.342Z,97.35
2023-02-07T05:11:37.636Z,97.76
2023-02-07T05:14:04.796Z,97.57
2023-02-07T05:16:32.211Z,97.71
2023-02-07T05:18:59.101Z,97.47
2023-02-07T05:21:26.269Z,97.57
2023-02-07T05:23:53.185Z,97.49
2023-02-07T05:26:20.370Z,96.94
2023-02-07T05:28:47.313Z,96.84
2023-02-07T05:31:14.719Z,96.92
2023-02-07T05:33:41.652Z,96.87
2023-02-07T05:36:09.446Z,97.03
2023-02-07T05:38:36.428Z,97.00
2023-02-07T05:41:03.685Z,96.26
2023-02-07T05:43:30.848Z,96.02
2023-02-07T05:45:58.733Z,96.23
2023-02-07T05:48:25.995Z,96.19
2023-02-07T05:50:53.458Z,96.00
2023-02-07T05:53:20.520Z,95.89
2023-02-07T05:55:51.404Z,95.82
2023-02-07T05:58:18.444Z,95.28
2023-02-07T06:00:45.685Z,95.88
2023-02-07T06:03:12.702Z,95.55
2023-02-07T06:05:40.631Z,96.05
2023-02-07T06:08:07.762Z,95.35
2023-02-07T06:10:34.939Z,95.21
2023-02-07T06:13:01.834Z,95.70
2023-02-07T06:15:29.167Z,94.82
2023-02-07T06:18:14.484Z,94.17
2023-02-07T06:20:41.684Z,94.03
2023-02-07T06:23:08.546Z,94.27
2023-02-07T06:25:35.838Z,94.45
2023-02-07T06:28:02.831Z,94.03
2023-02-07T06:30:30.160Z,94.39
2023-02-07T06:32:57.240Z,94.05
2023-02-07T06:35:25.685Z,94.28
2023-02-07T06:37:55.012Z,94.13
2023-02-07T06:40:22.517Z,93.95
2023-02-07T06:42:49.460Z,93.25
2023-02-07T06:45:16.857Z,93.76
2023-02-07T06:47:43.882Z,94.02
2023-02-07T06:50:11.165Z,93.07
2023-02-07T06:52:38.080Z,93.48
2023-02-07T06:55:05.597Z,92.96
2023-02-07T06:57:32.474Z,92.36
2023-02-07T06:59:59.884Z,92.01
2023-02-07T07:02:26.835Z,92.36
2023-02-07T07:04:54.186Z,92.94
2023-02-07T07:07:21.254Z,92.34
2023-02-07T07:09:48.501Z,91.93
2023-02-07T07:12:15.957Z,91.79
2023-02-07T07:14:43.215Z,91.71
2023-02-07T07:17:10.125Z,91.70
2023-02-07T07:19:37.275Z,91.73
2023-02-07T07:22:04.196Z,91.58
2023-02-07T07:24:31.403Z,91.00
2023-02-07T07:26:58.351Z,91.10
2023-02-07T07:29:25.674Z,91.38
2023-02-07T07:31:52.655Z,91.44
2023-02-07T07:34:20.214Z,91.58
2023-02-07T07:36:48.717Z,91.73
2023-02-07T07:39:17.150Z,91.76
2023-02-07T07:41:44.453Z,91.60
2023-02-07T07:44:18.846Z,90.94
2023-02-07T07:46:45.931Z,90.91
2023-02-07T07:49:13.364Z,91.33
2023-02-07T07:51:40.310Z,91.33
2023-02-07T07:54:07.598Z,90.52
2023-02-07T07:56:35.553Z,89.91
2023-02-07T07:59:06.114Z,89.96
2023-02-07T08:01:35.933Z,89.61
2023-02-07T08:04:03.917Z,90.01
2023-02-07T08:06:31.819Z,89.96
2023-02-07T08:08:58.985Z,89.98
2023-02-07T08:11:25.921Z,88.67
2023-02-07T08:13:53.301Z,88.16
2023-02-07T08:16:20.294Z,89.20
2023-02-07T08:18:47.610Z,88.59
2023-02-07T08:21:14.575Z,88.85
2023-02-07T08:23:41.861Z,89.06
2023-02-07T08:26:08.930Z,88.80
2023-02-07T08:28:36.461Z,88.27
2023-02-07T08:31:05.365Z,88.12
2023-02-07T08:33:33.336Z,87.76
2023-02-07T08:36:00.735Z,87.69
2023-02-07T08:38:28.022Z,87.86
2023-02-07T08:40:55.069Z,87.66
2023-02-07T08:43:22.402Z,88.37
2023-02-07T08:45:49.585Z,88.06
2023-02-07T08:48:18.486Z,88.17
2023-02-07T08:50:45.874Z,87.64
2023-02-07T08:53:13.084Z,87.21
2023-02-07T08:55:41.864Z,87.32
2023-02-07T08:58:09.039Z,87.38
2023-02-07T09:00:36.658Z,87.51
2023-02-07T09:03:04.852Z,86.64
2023-02-07T09:05:35.278Z,86.50
2023-02-07T09:08:03.392Z,86.28
2023-02-07T09:10:30.489Z,86.86
2023-02-07T09:12:57.872Z,87.14
2023-02-07T09:15:24.976Z,86.22
2023-02-07T09:17:52.404Z,86.22
2023-02-07T09:20:19.501Z,86.32
2023-02-07T09:23:05.397Z,86.56
2023-02-07T09:25:32.480Z,86.37
2023-02-07T09:27:59.942Z,86.04
2023-02-07T09:30:27.239Z,85.97
2023-02-07T09:32:54.862Z,86.60
2023-02-07T09:35:21.765Z,86.39
2023-02-07T09:37:50.163Z,86.82
2023-02-07T09:40:19.615Z,87.29
2023-02-07T09:42:55.796Z,86.82
2023-02-07T09:45:31.459Z,86.21
2023-02-07T09:48:12.393Z,86.84
2023-02-07T09:50:54.580Z,87.34
2023-02-07T09:53:59.946Z,86.57
2023-02-07T09:56:30.071Z,86.85
2023-02-07T09:59:15.345Z,86.48
2023-02-07T10:01:50.412Z,86.46
2023-02-07T10:04:24.608Z,86.52
2023-02-07T10:06:57.195Z,85.50
2023-02-07T10:09:30.172Z,84.55
2023-02-07T10:12:02.651Z,85.27
2023-02-07T10:14:58.654Z,85.25
2023-02-07T10:17:31.786Z,86.03
2023-02-07T10:20:01.887Z,85.14
2023-02-07T10:23:01.908Z,84.49
2023-02-07T10:25:41.551Z,84.76
2023-02-07T10:28:14.576Z,84.92
2023-02-07T10:30:52.562Z,84.95
2023-02-07T10:33:30.594Z,84.98
2023-02-07T10:36:03.513Z,85.36
2023-02-07T10:38:42.189Z,84.82
2023-02-07T10:41:17.396Z,84.64
2023-02-07T10:43:47.191Z,84.52
2023-02-07T10:46:20.723Z,84.16
2023-02-07T10:48:48.571Z,84.34
2023-02-07T10:51:26.663Z,85.26
2023-02-07T10:54:20.904Z,83.97
2023-02-07T10:56:57.797Z,84.38
2023-02-07T10:59:48.078Z,84.15
2023-02-07T11:02:31.846Z,83.96
2023-02-07T11:05:01.940Z,84.02
2023-02-07T11:07:39.397Z,84.32
2023-02-07T11:10:23.516Z,84.61
2023-02-07T11:12:56.462Z,83.69
2023-02-07T11:15:31.925Z,83.51
2023-02-07T11:17:59.226Z,84.65
2023-02-07T11:20:34.159Z,85.26
2023-02-07T11:23:06.844Z,84.20
2023-02-07T11:25:40.920Z,83.32
2023-02-07T11:28:35.675Z,83.63
2023-02-07T11:31:10.234Z,82.09
2023-02-07T11:33:37.952Z,82.75
2023-02-07T11:36:28.505Z,82.20
2023-02-07T11:38:58.642Z,81.49
2023-02-07T11:41:31.534Z,81.87
2023-02-07T11:44:14.536Z,82.61
2023-02-07T11:46:46.553Z,82.09
2023-02-07T11:49:25.846Z,81.63
2023-02-07T11:51:55.283Z,82.10
2023-02-07T11:54:23.394Z,82.61
2023-02-07T11:56:55.844Z,82.11
2023-02-07T11:59:26.869Z,82.27
2023-02-07T12:01:57.291Z,81.61
2023-02-07T12:04:44.952Z,80.41
2023-02-07T12:07:19.144Z,80.39
2023-02-07T12:09:55.549Z,79.90
2023-02-07T12:12:30.236Z,79.98
2023-02-07T12:15:04.074Z,81.03
2023-02-07T12:17:40.194Z,81.31
2023-02-07T12:20:21.695Z,81.32
2023-02-07T12:23:04.866Z,81.11
2023-02-07T12:25:52.533Z,80.73
2023-02-07T12:28:40.727Z,80.75
2023-02-07T12:31:27.576Z,80.90
2023-02-07T12:34:04.628Z,80.25
2023-02-07T12:36:39.451Z,80.94
2023-02-07T12:39:39.654Z,81.79
2023-02-07T12:42:34.227Z,81.33
2023-02-07T12:45:03.278Z,80.48
2023-02-07T12:47:49.021Z,80.88
2023-02-07T12:50:44.012Z,81.40
2023-02-07T12:53:38.711Z,82.10
2023-02-07T12:56:17.495Z,82.85
2023-02-07T12:59:15.461Z,83.10
2023-02-07T13:01:50.258Z,83.23
2023-02-07T13:04:20.775Z,82.10
2023-02-07T13:07:18.561Z,82.05
2023-02-07T13:10:22.157Z,82.53
2023-02-07T13:13:26.620Z,81.79
2023-02-07T13:16:06.469Z,82.83
2023-02-07T13:18:51.289Z,82.30
2023-02-07T13:21:44.242Z,82.36
2023-02-07T13:24:15.492Z,82.55
2023-02-07T13:26:48.790Z,81.80
2023-02-07T13:29:17.033Z,81.98
2023-02-07T13:31:53.405Z,81.78
2023-02-07T13:34:24.957Z,81.58
2023-02-07T13:36:52.803Z,81.59
2023-02-07T13:39:55.115Z,82.83
2023-02-07T13:42:37.308Z,81.76
2023-02-07T13:45:13.426Z,81.74
2023-02-07T13:48:03.146Z,82.13
2023-02-07T13:51:00.908Z,82.59
2023-02-07T13:53:38.856Z,81.96
2023-02-07T13:56:31.323Z,82.67
2023-02-07T13:59:19.865Z,82.97
2023-02-07T14:01:51.543Z,81.99
2023-02-07T14:04:20.033Z,82.53
2023-02-07T14:06:52.922Z,82.82
2023-02-07T14:09:32.687Z,83.00
2023-02-07T14:12:04.711Z,82.91
2023-02-07T14:14:38.136Z,82.74
2023-02-07T14:17:13.829Z,82.77
2023-02-07T14:19:41.149Z,83.02
2023-02-07T14:22:27.059Z,83.31
2023-02-07T14:25:03.533Z,82.83
2023-02-07T14:27:39.284Z,82.93
2023-02-07T14:30:14.442Z,83.24
2023-02-07T14:33:03.446Z,83.35
2023-02-07T14:35:34.475Z,83.66
2023-02-07T14:38:07.534Z,83.71
2023-02-07T14:41:01.861Z,84.42
2023-02-07T14:43:41.448Z,84.76
2023-02-07T14:46:16.717Z,84.69
2023-02-07T14:48:49.052Z,84.83
2023-02-07T14:51:24.969Z,84.91
2023-02-07T14:54:07.298Z,84.87
2023-02-07T14:56:49.586Z,85.23
2023-02-07T14:59:42.860Z,85.26
2023-02-07T15:02:58.893Z,85.39
2023-02-07T15:05:35.209Z,86.11
2023-02-07T15:08:02.444Z,86.08
2023-02-07T15:10:30.913Z,86.22
2023-02-07T15:12:58.831Z,86.09
2023-02-07T15:15:34.885Z,85.86
2023-02-07T15:18:02.757Z,85.83
2023-02-07T15:20:35.608Z,86.08
2023-02-07T15:23:07.369Z,86.42
2023-02-07T15:25:35.349Z,86.55
2023-02-07T15:28:26.758Z,86.77
2023-02-07T15:31:06.626Z,86.70
2023-02-07T15:33:53.891Z,87.55
2023-02-07T15:36:29.655Z,87.35
2023-02-07T15:38:58.570Z,87.54
2023-02-07T15:41:27.305Z,87.21
2023-02-07T15:44:02.984Z,86.85
2023-02-07T15:46:53.777Z,86.98
2023-02-07T15:49:30.574Z,87.74
2023-02-07T15:52:30.392Z,87.78
2023-02-07T15:54:59.974Z,87.10
2023-02-07T15:57:29.530Z,87.26
2023-02-07T16:00:02.648Z,87.12
2023-02-07T16:02:43.725Z,87.74
2023-02-07T16:05:19.642Z,87.35
2023-02-07T16:07:48.000Z,87.55
2023-02-07T16:10:30.916Z,87.62
2023-02-07T16:13:18.352Z,87.73
2023-02-07T16:16:06.854Z,87.65
2023-02-07T16:18:42.606Z,87.61
2023-02-07T16:21:17.284Z,87.75
2023-02-07T16:23:46.414Z,88.39
2023-02-07T16:26:17.544Z,88.31
2023-02-07T16:28:46.625Z,88.26
2023-02-07T16:31:14.026Z,88.93
2023-02-07T16:33:41.137Z,88.73
2023-02-07T16:36:17.581Z,88.53
2023-02-07T16:38:46.522Z,88.66
2023-02-07T16:41:35.403Z,88.60
2023-02-07T16:44:06.945Z,88.02
2023-02-07T16:46:34.545Z,88.59
2023-02-07T16:49:01.515Z,89.15
2023-02-07T16:51:28.692Z,88.73
2023-02-07T16:53:55.762Z,88.86
2023-02-07T16:56:27.831Z,89.43
2023-02-07T16:58:55.137Z,89.25
2023-02-07T17:01:22.728Z,89.31
2023-02-07T17:03:50.014Z,88.90
2023-02-07T17:06:19.858Z,89.21
2023-02-07T17:08:47.296Z,89.43
2023-02-07T17:11:19.505Z,89.13
2023-02-07T17:13:46.535Z,89.17
2023-02-07T17:16:14.138Z,89.16
2023-02-07T17:18:41.790Z,89.13
2023-02-07T17:21:09.299Z,88.80
2023-02-07T17:23:36.540Z,88.79
2023-02-07T17:26:05.691Z,88.85
2023-02-07T17:28:33.003Z,88.63
2023-02-07T17:31:00.280Z,89.05
2023-02-07T17:33:27.321Z,89.49
2023-02-07T17:35:54.632Z,89.42
2023-02-07T17:38:21.554Z,89.38
2023-02-07T17:40:48.885Z,88.53
2023-02-07T17:43:15.908Z,88.47
2023-02-07T17:45:43.138Z,88.46
2023-02-07T17:48:11.985Z,88.67
2023-02-07T17:50:41.279Z,89.13
2023-02-07T17:53:10.198Z,88.54
2023-02-07T17:55:38.650Z,88.58
2023-02-07T17:58:06.092Z,88.38
2023-02-07T18:00:40.007Z,88.69
2023-02-07T18:03:07.761Z,88.26
2023-02-07T18:05:35.603Z,88.52
2023-02-07T18:08:03.122Z,88.94
2023-02-07T18:10:35.198Z,88.68
2023-02-07T18:13:02.549Z,88.69
2023-02-07T18:15:30.384Z,88.45
2023-02-07T18:17:58.643Z,88.37
2023-02-07T18:20:29.723Z,88.67
2023-02-07T18:22:58.968Z,88.43
2023-02-07T18:25:49.234Z,88.16
2023-02-07T18:28:17.258Z,88.21
2023-02-07T18:30:44.835Z,88.22
2023-02-07T18:33:13.511Z,88.36
2023-02-07T18:35:41.134Z,88.61
2023-02-07T18:38:08.470Z,88.55
2023-02-07T18:40:35.426Z,88.67
2023-02-07T18:43:02.616Z,88.14
2023-02-07T18:45:29.541Z,87.95
2023-02-07T18:47:56.819Z,87.98
2023-02-07T18:50:23.744Z,88.53
2023-02-07T18:52:50.894Z,88.42
2023-02-07T18:55:17.921Z,88.50
2023-02-07T18:57:45.121Z,88.42
2023-02-07T19:00:14.425Z,88.91
2023-02-07T19:02:41.720Z,87.81
2023-02-07T19:05:09.374Z,88.37
2023-02-07T19:07:36.610Z,88.45
2023-02-07T19:10:04.060Z,88.99
2023-02-07T19:12:31.488Z,89.04
2023-02-07T19:15:16.750Z,88.14
2023-02-07T19:17:43.940Z,88.64
2023-02-07T19:20:11.261Z,88.35
2023-02-07T19:22:38.887Z,88.33
2023-02-07T19:25:06.321Z,88.17
2023-02-07T19:27:33.947Z,88.36
2023-02-07T19:30:01.392Z,88.43
2023-02-07T19:32:29.039Z,88.09
2023-02-07T19:34:55.908Z,88.37
2023-02-07T19:37:23.137Z,88.56
2023-02-07T19:39:50.148Z,88.88
2023-02-07T19:42:17.383Z,88.64
2023-02-07T19:44:44.326Z,88.39
2023-02-07T19:47:11.587Z,88.16
2023-02-07T19:49:38.795Z,88.48
2023-02-07T19:52:06.065Z,88.90
2023-02-07T19:54:33.029Z,89.26
2023-02-07T19:57:00.284Z,88.83
2023-02-07T19:59:27.222Z,88.90
2023-02-07T20:01:54.771Z,88.49
2023-02-07T20:04:21.764Z,87.89
2023-02-07T20:06:49.171Z,88.17
2023-02-07T20:09:16.142Z,87.93
2023-02-07T20:11:43.424Z,88.26
2023-02-07T20:14:10.552Z,87.92
2023-02-07T20:16:39.395Z,88.08
2023-02-07T20:19:07.782Z,88.48
2023-02-07T20:21:36.397Z,88.28
2023-02-07T20:24:03.779Z,88.04
2023-02-07T20:26:36.579Z,88.17
2023-02-07T20:29:06.911Z,88.00
2023-02-07T20:31:34.327Z,88.56
2023-02-07T20:34:02.337Z,88.64
2023-02-07T20:36:31.226Z,88.69
2023-02-07T20:38:59.315Z,88.54
2023-02-07T20:41:29.553Z,88.50
2023-02-07T20:43:58.069Z,87.79
2023-02-07T20:46:26.920Z,87.95
2023-02-07T20:49:06.034Z,87.74
2023-02-07T20:51:37.253Z,87.57
2023-02-07T20:54:06.653Z,87.61
2023-02-07T20:56:34.957Z,87.66
2023-02-07T20:59:01.906Z,88.20
2023-02-07T21:01:31.813Z,88.78
2023-02-07T21:04:02.097Z,89.02
2023-02-07T21:06:29.778Z,89.11
2023-02-07T21:09:00.710Z,89.02
2023-02-07T21:11:33.866Z,89.16
2023-02-07T21:14:02.707Z,89.33
2023-02-07T21:16:33.203Z,89.34
2023-02-07T21:19:01.124Z,89.35
2023-02-07T21:21:29.362Z,89.24
2023-02-07T21:23:57.330Z,89.38
2023-02-07T21:26:26.696Z,88.78
2023-02-07T21:28:58.768Z,88.28
2023-02-07T21:31:27.744Z,88.56
2023-02-07T21:33:55.289Z,88.92
2023-02-07T21:36:28.212Z,88.85
2023-02-07T21:38:57.011Z,88.95
2023-02-07T21:41:26.090Z,88.73
2023-02-07T21:43:57.475Z,88.98
2023-02-07T21:46:28.110Z,88.91
2023-02-07T21:49:01.559Z,88.67
2023-02-07T21:51:31.132Z,88.55
2023-02-07T21:53:59.130Z,88.22
2023-02-07T21:56:29.187Z,88.26
2023-02-07T21:59:01.054Z,88.63
2023-02-07T22:01:29.447Z,88.34
2023-02-07T22:03:58.888Z,88.32
2023-02-07T22:06:27.173Z,87.99
2023-02-07T22:08:57.000Z,87.88
2023-02-07T22:11:27.681Z,88.13
2023-02-07T22:13:55.068Z,88.02
2023-02-07T22:16:24.247Z,87.24
2023-02-07T22:18:53.471Z,87.67
2023-02-07T22:21:26.170Z,87.81
2023-02-07T22:23:53.863Z,88.07
2023-02-07T22:26:21.881Z,88.13
2023-02-07T22:28:48.997Z,87.91
2023-02-07T22:31:23.051Z,87.80
2023-02-07T22:33:51.808Z,87.92
2023-02-07T22:36:27.402Z,87.73
2023-02-07T22:38:55.597Z,87.67
2023-02-07T22:41:23.355Z,87.34
2023-02-07T22:43:51.084Z,87.34
2023-02-07T22:46:21.552Z,87.36
2023-02-07T22:48:48.684Z,87.07
2023-02-07T22:51:29.657Z,87.11
2023-02-07T22:53:59.600Z,87.25
2023-02-07T22:56:27.862Z,87.08
2023-02-07T22:58:55.799Z,86.73
2023-02-07T23:01:34.812Z,86.96
2023-02-07T23:04:03.862Z,87.19
2023-02-07T23:06:32.674Z,87.23
2023-02-07T23:09:00.129Z,87.41
2023-02-07T23:11:27.589Z,86.80
2023-02-07T23:13:55.264Z,87.29
2023-02-07T23:16:25.419Z,87.52
2023-02-07T23:18:56.458Z,87.79
2023-02-07T23:21:25.855Z,87.97
2023-02-07T23:23:53.364Z,88.10
2023-02-07T23:26:22.956Z,88.22
2023-02-07T23:28:50.740Z,88.37
2023-02-07T23:31:20.529Z,88.17
2023-02-07T23:33:47.894Z,88.25
2023-02-07T23:36:17.591Z,87.86
2023-02-07T23:38:46.342Z,87.88
2023-02-07T23:41:14.323Z,88.48
2023-02-07T23:43:41.585Z,88.00
2023-02-07T23:46:09.853Z,88.05
2023-02-07T23:48:38.592Z,87.70
2023-02-07T23:51:06.953Z,87.38
2023-02-07T23:53:34.431Z,87.59
2023-02-07T23:56:03.268Z,87.84
2023-02-07T23:58:30.246Z,88.27
